sensor_id;sensor_type;location;lat;lon;timestamp;P1;durP1;ratioP1;P2;durP2;ratioP2
62903;SDS011;49000;50.698;13.322;2023-06-24T00:02:16;5.17;;;3.80;;
62903;SDS011;49000;50.698;13.322;2023-06-24T00:04:42;5.77;;;4.30;;
62903;SDS011;49000;50.698;13.322;2023-06-24T00:07:07;6.33;;;5.30;;
62903;SDS011;49000;50.698;13.322;2023-06-24T00:09:33;5.87;;;4.60;;
62903;SDS011;49000;50.698;13.322;2023-06-24T00:11:59;5.80;;;4.30;;
62903;SDS011;49000;50.698;13.322;2023-06-24T00:14:25;7.20;;;4.90;;
62903;SDS011;49000;50.698;13.322;2023-06-24T00:16:51;8.17;;;6.03;;
62903;SDS011;49000;50.698;13.322;2023-06-24T00:19:22;5.70;;;5.10;;
62903;SDS011;49000;50.698;13.322;2023-06-24T00:21:49;8.83;;;5.83;;
62903;SDS011;49000;50.698;13.322;2023-06-24T00:24:16;11.63;;;7.67;;
62903;SDS011;49000;50.698;13.322;2023-06-24T00:26:42;10.80;;;8.17;;
62903;SDS011;49000;50.698;13.322;2023-06-24T00:29:08;11.83;;;8.77;;
62903;SDS011;49000;50.698;13.322;2023-06-24T00:31:34;8.53;;;7.63;;
62903;SDS011;49000;50.698;13.322;2023-06-24T00:33:59;12.83;;;10.70;;
62903;SDS011;49000;50.698;13.322;2023-06-24T00:36:25;19.67;;;14.10;;
62903;SDS011;49000;50.698;13.322;2023-06-24T00:38:51;17.30;;;13.40;;
62903;SDS011;49000;50.698;13.322;2023-06-24T00:41:17;18.77;;;13.57;;
62903;SDS011;49000;50.698;13.322;2023-06-24T00:43:43;16.20;;;12.53;;
62903;SDS011;49000;50.698;13.322;2023-06-24T00:46:09;16.17;;;12.87;;
62903;SDS011;49000;50.698;13.322;2023-06-24T00:48:35;18.73;;;14.83;;
62903;SDS011;49000;50.698;13.322;2023-06-24T00:51:01;21.90;;;15.87;;
62903;SDS011;49000;50.698;13.322;2023-06-24T00:53:27;20.23;;;14.83;;
62903;SDS011;49000;50.698;13.322;2023-06-24T00:55:53;18.63;;;14.27;;
62903;SDS011;49000;50.698;13.322;2023-06-24T00:58:22;17.47;;;14.00;;
62903;SDS011;49000;50.698;13.322;2023-06-24T01:00:48;19.93;;;14.83;;
62903;SDS011;49000;50.698;13.322;2023-06-24T01:03:22;26.77;;;19.20;;
62903;SDS011;49000;50.698;13.322;2023-06-24T01:05:50;23.93;;;17.57;;
62903;SDS011;49000;50.698;13.322;2023-06-24T01:08:15;22.40;;;17.40;;
62903;SDS011;49000;50.698;13.322;2023-06-24T01:10:41;22.07;;;17.53;;
62903;SDS011;49000;50.698;13.322;2023-06-24T01:13:07;21.77;;;16.73;;
62903;SDS011;49000;50.698;13.322;2023-06-24T01:15:33;17.37;;;13.73;;
62903;SDS011;49000;50.698;13.322;2023-06-24T01:18:06;18.97;;;15.60;;
62903;SDS011;49000;50.698;13.322;2023-06-24T01:31:31;20.67;;;16.73;;
62903;SDS011;49000;50.698;13.322;2023-06-24T01:34:28;19.17;;;15.83;;
62903;SDS011;49000;50.698;13.322;2023-06-24T01:37:05;24.60;;;19.37;;
62903;SDS011;49000;50.698;13.322;2023-06-24T01:39:46;22.33;;;17.20;;
62903;SDS011;49000;50.698;13.322;2023-06-24T01:42:15;22.73;;;19.03;;
62903;SDS011;49000;50.698;13.322;2023-06-24T01:44:42;25.57;;;19.80;;
62903;SDS011;49000;50.698;13.322;2023-06-24T01:47:10;28.17;;;20.70;;
62903;SDS011;49000;50.698;13.322;2023-06-24T01:49:38;33.27;;;22.07;;
62903;SDS011;49000;50.698;13.322;2023-06-24T01:52:05;29.00;;;21.07;;
62903;SDS011;49000;50.698;13.322;2023-06-24T01:54:36;29.67;;;20.87;;
62903;SDS011;49000;50.698;13.322;2023-06-24T01:57:06;25.97;;;19.63;;
62903;SDS011;49000;50.698;13.322;2023-06-24T01:59:33;27.33;;;20.97;;
62903;SDS011;49000;50.698;13.322;2023-06-24T02:02:00;26.90;;;21.07;;
62903;SDS011;49000;50.698;13.322;2023-06-24T02:04:27;30.93;;;22.33;;
62903;SDS011;49000;50.698;13.322;2023-06-24T02:06:56;22.77;;;18.53;;
62903;SDS011;49000;50.698;13.322;2023-06-24T02:09:26;27.60;;;22.23;;
62903;SDS011;49000;50.698;13.322;2023-06-24T02:11:53;28.50;;;21.27;;
62903;SDS011;49000;50.698;13.322;2023-06-24T02:14:21;23.63;;;19.20;;
62903;SDS011;49000;50.698;13.322;2023-06-24T02:16:47;28.40;;;20.53;;
62903;SDS011;49000;50.698;13.322;2023-06-24T02:19:13;28.00;;;20.90;;
62903;SDS011;49000;50.698;13.322;2023-06-24T02:21:43;30.73;;;22.10;;
62903;SDS011;49000;50.698;13.322;2023-06-24T02:24:09;28.47;;;21.97;;
62903;SDS011;49000;50.698;13.322;2023-06-24T02:26:36;29.23;;;22.27;;
62903;SDS011;49000;50.698;13.322;2023-06-24T02:29:05;22.03;;;19.30;;
62903;SDS011;49000;50.698;13.322;2023-06-24T02:31:35;25.27;;;20.40;;
62903;SDS011;49000;50.698;13.322;2023-06-24T02:34:01;27.07;;;21.87;;
62903;SDS011;49000;50.698;13.322;2023-06-24T02:36:26;25.17;;;20.27;;
62903;SDS011;49000;50.698;13.322;2023-06-24T02:38:52;25.23;;;19.57;;
62903;SDS011;49000;50.698;13.322;2023-06-24T02:41:18;26.20;;;20.33;;
62903;SDS011;49000;50.698;13.322;2023-06-24T02:43:43;30.97;;;22.30;;
62903;SDS011;49000;50.698;13.322;2023-06-24T02:46:09;28.77;;;21.53;;
62903;SDS011;49000;50.698;13.322;2023-06-24T02:48:36;23.27;;;19.77;;
62903;SDS011;49000;50.698;13.322;2023-06-24T02:51:03;24.97;;;20.03;;
62903;SDS011;49000;50.698;13.322;2023-06-24T02:53:31;25.37;;;19.83;;
62903;SDS011;49000;50.698;13.322;2023-06-24T02:55:57;23.43;;;19.13;;
62903;SDS011;49000;50.698;13.322;2023-06-24T02:58:23;22.57;;;18.83;;
62903;SDS011;49000;50.698;13.322;2023-06-24T03:00:56;25.17;;;19.43;;
62903;SDS011;49000;50.698;13.322;2023-06-24T03:03:23;23.17;;;19.43;;
62903;SDS011;49000;50.698;13.322;2023-06-24T03:05:50;23.83;;;18.80;;
62903;SDS011;49000;50.698;13.322;2023-06-24T03:08:16;21.63;;;18.03;;
62903;SDS011;49000;50.698;13.322;2023-06-24T03:10:42;16.90;;;15.07;;
62903;SDS011;49000;50.698;13.322;2023-06-24T03:13:08;19.07;;;16.07;;
62903;SDS011;49000;50.698;13.322;2023-06-24T03:15:33;22.27;;;17.77;;
62903;SDS011;49000;50.698;13.322;2023-06-24T03:17:58;33.40;;;21.60;;
62903;SDS011;49000;50.698;13.322;2023-06-24T03:20:24;28.17;;;20.70;;
62903;SDS011;49000;50.698;13.322;2023-06-24T03:22:49;24.07;;;18.93;;
62903;SDS011;49000;50.698;13.322;2023-06-24T03:25:17;19.17;;;15.60;;
62903;SDS011;49000;50.698;13.322;2023-06-24T03:27:42;18.67;;;14.37;;
62903;SDS011;49000;50.698;13.322;2023-06-24T03:30:08;24.53;;;18.63;;
62903;SDS011;49000;50.698;13.322;2023-06-24T03:32:35;24.07;;;17.50;;
62903;SDS011;49000;50.698;13.322;2023-06-24T03:35:02;22.07;;;19.10;;
62903;SDS011;49000;50.698;13.322;2023-06-24T03:37:28;26.47;;;18.67;;
62903;SDS011;49000;50.698;13.322;2023-06-24T03:39:54;28.83;;;21.37;;
62903;SDS011;49000;50.698;13.322;2023-06-24T03:42:21;25.70;;;20.13;;
62903;SDS011;49000;50.698;13.322;2023-06-24T03:44:46;24.67;;;20.27;;
62903;SDS011;49000;50.698;13.322;2023-06-24T03:47:12;27.13;;;21.40;;
62903;SDS011;49000;50.698;13.322;2023-06-24T03:49:37;20.70;;;18.40;;
62903;SDS011;49000;50.698;13.322;2023-06-24T03:52:03;28.33;;;20.63;;
62903;SDS011;49000;50.698;13.322;2023-06-24T03:54:30;26.50;;;21.00;;
62903;SDS011;49000;50.698;13.322;2023-06-24T03:56:56;29.57;;;22.17;;
62903;SDS011;49000;50.698;13.322;2023-06-24T03:59:22;34.03;;;23.73;;
62903;SDS011;49000;50.698;13.322;2023-06-24T04:01:48;35.13;;;24.70;;
62903;SDS011;49000;50.698;13.322;2023-06-24T04:04:16;35.37;;;25.97;;
62903;SDS011;49000;50.698;13.322;2023-06-24T04:06:41;33.47;;;25.27;;
62903;SDS011;49000;50.698;13.322;2023-06-24T04:09:07;30.70;;;23.73;;
62903;SDS011;49000;50.698;13.322;2023-06-24T04:11:34;29.53;;;22.67;;
62903;SDS011;49000;50.698;13.322;2023-06-24T04:14:00;31.63;;;25.00;;
62903;SDS011;49000;50.698;13.322;2023-06-24T04:16:26;36.17;;;26.20;;
62903;SDS011;49000;50.698;13.322;2023-06-24T04:18:52;32.10;;;25.33;;
62903;SDS011;49000;50.698;13.322;2023-06-24T04:21:18;33.07;;;25.63;;
62903;SDS011;49000;50.698;13.322;2023-06-24T04:23:43;35.37;;;27.43;;
62903;SDS011;49000;50.698;13.322;2023-06-24T04:26:09;29.43;;;25.33;;
62903;SDS011;49000;50.698;13.322;2023-06-24T04:28:34;38.43;;;29.27;;
62903;SDS011;49000;50.698;13.322;2023-06-24T04:31:00;40.40;;;31.17;;
62903;SDS011;49000;50.698;13.322;2023-06-24T04:33:26;41.37;;;30.93;;
62903;SDS011;49000;50.698;13.322;2023-06-24T04:35:51;31.50;;;25.87;;
62903;SDS011;49000;50.698;13.322;2023-06-24T04:38:16;39.47;;;28.37;;
62903;SDS011;49000;50.698;13.322;2023-06-24T04:40:43;34.07;;;27.73;;
62903;SDS011;49000;50.698;13.322;2023-06-24T04:43:09;37.07;;;28.70;;
62903;SDS011;49000;50.698;13.322;2023-06-24T04:45:35;31.47;;;26.00;;
62903;SDS011;49000;50.698;13.322;2023-06-24T04:48:00;32.23;;;25.57;;
62903;SDS011;49000;50.698;13.322;2023-06-24T04:50:26;32.20;;;27.07;;
62903;SDS011;49000;50.698;13.322;2023-06-24T04:52:52;33.73;;;26.20;;
62903;SDS011;49000;50.698;13.322;2023-06-24T04:55:20;37.50;;;28.80;;
62903;SDS011;49000;50.698;13.322;2023-06-24T04:57:46;35.73;;;28.20;;
62903;SDS011;49000;50.698;13.322;2023-06-24T05:00:12;47.33;;;26.73;;
62903;SDS011;49000;50.698;13.322;2023-06-24T05:02:38;34.73;;;27.27;;
62903;SDS011;49000;50.698;13.322;2023-06-24T05:05:03;30.57;;;25.07;;
62903;SDS011;49000;50.698;13.322;2023-06-24T05:07:29;46.97;;;26.10;;
62903;SDS011;49000;50.698;13.322;2023-06-24T05:09:54;34.37;;;26.80;;
62903;SDS011;49000;50.698;13.322;2023-06-24T05:12:20;34.57;;;26.00;;
62903;SDS011;49000;50.698;13.322;2023-06-24T05:14:49;31.70;;;24.23;;
62903;SDS011;49000;50.698;13.322;2023-06-24T05:17:18;30.77;;;23.83;;
62903;SDS011;49000;50.698;13.322;2023-06-24T05:19:44;29.97;;;24.47;;
62903;SDS011;49000;50.698;13.322;2023-06-24T05:22:09;28.20;;;23.67;;
62903;SDS011;49000;50.698;13.322;2023-06-24T05:24:35;30.27;;;24.80;;
62903;SDS011;49000;50.698;13.322;2023-06-24T05:27:04;27.73;;;22.63;;
62903;SDS011;49000;50.698;13.322;2023-06-24T05:29:31;32.00;;;23.63;;
62903;SDS011;49000;50.698;13.322;2023-06-24T05:31:57;31.03;;;23.73;;
62903;SDS011;49000;50.698;13.322;2023-06-24T05:34:23;28.33;;;22.60;;
62903;SDS011;49000;50.698;13.322;2023-06-24T05:36:49;26.60;;;21.17;;
62903;SDS011;49000;50.698;13.322;2023-06-24T05:39:14;29.63;;;21.57;;
62903;SDS011;49000;50.698;13.322;2023-06-24T05:41:40;28.80;;;22.00;;
62903;SDS011;49000;50.698;13.322;2023-06-24T05:44:08;27.10;;;21.93;;
62903;SDS011;49000;50.698;13.322;2023-06-24T05:46:37;26.00;;;20.37;;
62903;SDS011;49000;50.698;13.322;2023-06-24T05:49:03;23.10;;;20.10;;
62903;SDS011;49000;50.698;13.322;2023-06-24T05:51:28;25.10;;;20.13;;
62903;SDS011;49000;50.698;13.322;2023-06-24T05:53:54;26.03;;;20.47;;
62903;SDS011;49000;50.698;13.322;2023-06-24T05:56:20;23.93;;;19.73;;
62903;SDS011;49000;50.698;13.322;2023-06-24T05:58:47;23.80;;;20.03;;
62903;SDS011;49000;50.698;13.322;2023-06-24T06:01:13;20.67;;;17.37;;
62903;SDS011;49000;50.698;13.322;2023-06-24T06:03:38;20.23;;;18.03;;
62903;SDS011;49000;50.698;13.322;2023-06-24T06:06:04;22.37;;;17.97;;
62903;SDS011;49000;50.698;13.322;2023-06-24T06:08:29;19.23;;;16.47;;
62903;SDS011;49000;50.698;13.322;2023-06-24T06:10:55;22.77;;;16.60;;
62903;SDS011;49000;50.698;13.322;2023-06-24T06:13:20;17.60;;;15.33;;
62903;SDS011;49000;50.698;13.322;2023-06-24T06:15:46;20.87;;;17.80;;
62903;SDS011;49000;50.698;13.322;2023-06-24T06:18:11;18.50;;;15.57;;
62903;SDS011;49000;50.698;13.322;2023-06-24T06:20:37;20.23;;;16.57;;
62903;SDS011;49000;50.698;13.322;2023-06-24T06:23:02;18.77;;;16.83;;
62903;SDS011;49000;50.698;13.322;2023-06-24T06:25:28;20.17;;;15.73;;
62903;SDS011;49000;50.698;13.322;2023-06-24T06:27:54;22.47;;;17.67;;
62903;SDS011;49000;50.698;13.322;2023-06-24T06:30:19;20.10;;;16.93;;
62903;SDS011;49000;50.698;13.322;2023-06-24T06:32:45;19.10;;;14.80;;
62903;SDS011;49000;50.698;13.322;2023-06-24T06:35:10;20.00;;;17.17;;
62903;SDS011;49000;50.698;13.322;2023-06-24T06:37:36;20.93;;;16.83;;
62903;SDS011;49000;50.698;13.322;2023-06-24T06:40:02;20.30;;;17.03;;
62903;SDS011;49000;50.698;13.322;2023-06-24T06:42:28;19.20;;;15.23;;
62903;SDS011;49000;50.698;13.322;2023-06-24T06:44:54;18.77;;;16.00;;
62903;SDS011;49000;50.698;13.322;2023-06-24T06:47:20;18.73;;;15.17;;
62903;SDS011;49000;50.698;13.322;2023-06-24T06:49:45;16.67;;;14.77;;
62903;SDS011;49000;50.698;13.322;2023-06-24T06:52:11;16.63;;;14.73;;
62903;SDS011;49000;50.698;13.322;2023-06-24T06:54:36;19.27;;;16.87;;
62903;SDS011;49000;50.698;13.322;2023-06-24T06:57:02;19.50;;;15.17;;
62903;SDS011;49000;50.698;13.322;2023-06-24T06:59:29;17.83;;;15.23;;
62903;SDS011;49000;50.698;13.322;2023-06-24T07:01:57;18.17;;;14.63;;
62903;SDS011;49000;50.698;13.322;2023-06-24T07:04:23;21.23;;;14.93;;
62903;SDS011;49000;50.698;13.322;2023-06-24T07:06:49;16.47;;;13.07;;
62903;SDS011;49000;50.698;13.322;2023-06-24T07:09:15;15.17;;;13.07;;
62903;SDS011;49000;50.698;13.322;2023-06-24T07:11:40;19.07;;;13.57;;
62903;SDS011;49000;50.698;13.322;2023-06-24T07:14:06;18.87;;;13.33;;
62903;SDS011;49000;50.698;13.322;2023-06-24T07:16:32;19.03;;;15.77;;
62903;SDS011;49000;50.698;13.322;2023-06-24T07:18:57;21.83;;;17.13;;
62903;SDS011;49000;50.698;13.322;2023-06-24T07:21:23;17.83;;;15.83;;
62903;SDS011;49000;50.698;13.322;2023-06-24T07:23:48;20.87;;;16.13;;
62903;SDS011;49000;50.698;13.322;2023-06-24T07:26:14;18.40;;;14.50;;
62903;SDS011;49000;50.698;13.322;2023-06-24T07:28:39;17.87;;;14.43;;
62903;SDS011;49000;50.698;13.322;2023-06-24T07:31:05;14.50;;;12.20;;
62903;SDS011;49000;50.698;13.322;2023-06-24T07:33:30;14.63;;;13.13;;
62903;SDS011;49000;50.698;13.322;2023-06-24T07:35:56;18.23;;;13.10;;
62903;SDS011;49000;50.698;13.322;2023-06-24T07:38:22;14.13;;;11.93;;
62903;SDS011;49000;50.698;13.322;2023-06-24T07:40:47;16.47;;;12.40;;
62903;SDS011;49000;50.698;13.322;2023-06-24T07:43:13;14.20;;;11.93;;
62903;SDS011;49000;50.698;13.322;2023-06-24T07:45:38;13.68;;;11.40;;
62903;SDS011;49000;50.698;13.322;2023-06-24T07:48:04;15.37;;;12.77;;
62903;SDS011;49000;50.698;13.322;2023-06-24T07:50:30;14.40;;;11.27;;
62903;SDS011;49000;50.698;13.322;2023-06-24T07:52:56;17.30;;;12.13;;
62903;SDS011;49000;50.698;13.322;2023-06-24T07:55:22;14.37;;;11.43;;
62903;SDS011;49000;50.698;13.322;2023-06-24T07:57:47;13.00;;;9.20;;
62903;SDS011;49000;50.698;13.322;2023-06-24T08:00:13;10.43;;;8.32;;
62903;SDS011;49000;50.698;13.322;2023-06-24T08:02:40;11.57;;;8.82;;
62903;SDS011;49000;50.698;13.322;2023-06-24T08:05:06;10.40;;;7.93;;
62903;SDS011;49000;50.698;13.322;2023-06-24T08:07:32;9.80;;;7.47;;
62903;SDS011;49000;50.698;13.322;2023-06-24T08:09:57;8.67;;;7.70;;
62903;SDS011;49000;50.698;13.322;2023-06-24T08:12:23;10.68;;;7.95;;
62903;SDS011;49000;50.698;13.322;2023-06-24T08:14:48;11.18;;;8.77;;
62903;SDS011;49000;50.698;13.322;2023-06-24T08:17:14;12.63;;;8.18;;
62903;SDS011;49000;50.698;13.322;2023-06-24T08:19:39;9.50;;;7.57;;
62903;SDS011;49000;50.698;13.322;2023-06-24T08:22:04;9.23;;;7.68;;
62903;SDS011;49000;50.698;13.322;2023-06-24T08:24:30;7.67;;;6.83;;
62903;SDS011;49000;50.698;13.322;2023-06-24T08:26:56;7.90;;;6.82;;
62903;SDS011;49000;50.698;13.322;2023-06-24T08:29:22;9.27;;;7.13;;
62903;SDS011;49000;50.698;13.322;2023-06-24T08:31:47;11.00;;;7.70;;
62903;SDS011;49000;50.698;13.322;2023-06-24T08:34:12;8.77;;;6.68;;
62903;SDS011;49000;50.698;13.322;2023-06-24T08:36:38;9.30;;;6.93;;
62903;SDS011;49000;50.698;13.322;2023-06-24T08:39:04;7.65;;;6.45;;
62903;SDS011;49000;50.698;13.322;2023-06-24T08:41:29;9.38;;;6.72;;
62903;SDS011;49000;50.698;13.322;2023-06-24T08:43:55;7.47;;;6.60;;
62903;SDS011;49000;50.698;13.322;2023-06-24T08:46:20;8.63;;;7.68;;
62903;SDS011;49000;50.698;13.322;2023-06-24T08:48:48;8.00;;;7.20;;
62903;SDS011;49000;50.698;13.322;2023-06-24T08:51:18;10.38;;;7.07;;
62903;SDS011;49000;50.698;13.322;2023-06-24T08:53:46;10.02;;;8.18;;
62903;SDS011;49000;50.698;13.322;2023-06-24T08:56:13;8.45;;;7.50;;
62903;SDS011;49000;50.698;13.322;2023-06-24T08:58:40;8.02;;;7.22;;
62903;SDS011;49000;50.698;13.322;2023-06-24T09:01:05;7.18;;;6.50;;
62903;SDS011;49000;50.698;13.322;2023-06-24T09:03:32;7.60;;;6.90;;
62903;SDS011;49000;50.698;13.322;2023-06-24T09:05:57;7.40;;;6.68;;
62903;SDS011;49000;50.698;13.322;2023-06-24T09:08:23;11.32;;;6.78;;
62903;SDS011;49000;50.698;13.322;2023-06-24T09:10:54;9.75;;;6.28;;
62903;SDS011;49000;50.698;13.322;2023-06-24T09:13:20;7.25;;;5.63;;
62903;SDS011;49000;50.698;13.322;2023-06-24T09:15:48;10.23;;;6.82;;
62903;SDS011;49000;50.698;13.322;2023-06-24T09:18:13;8.77;;;6.35;;
62903;SDS011;49000;50.698;13.322;2023-06-24T09:20:42;9.23;;;6.43;;
62903;SDS011;49000;50.698;13.322;2023-06-24T09:23:10;10.27;;;6.53;;
62903;SDS011;49000;50.698;13.322;2023-06-24T09:25:36;6.15;;;5.15;;
62903;SDS011;49000;50.698;13.322;2023-06-24T09:28:01;7.93;;;5.75;;
62903;SDS011;49000;50.698;13.322;2023-06-24T09:30:28;7.43;;;5.88;;
62903;SDS011;49000;50.698;13.322;2023-06-24T09:32:54;6.78;;;6.13;;
62903;SDS011;49000;50.698;13.322;2023-06-24T09:35:20;7.65;;;5.65;;
62903;SDS011;49000;50.698;13.322;2023-06-24T09:37:50;7.55;;;6.28;;
62903;SDS011;49000;50.698;13.322;2023-06-24T09:40:16;6.38;;;5.53;;
62903;SDS011;49000;50.698;13.322;2023-06-24T09:42:52;7.07;;;5.78;;
62903;SDS011;49000;50.698;13.322;2023-06-24T09:45:19;6.85;;;6.15;;
62903;SDS011;49000;50.698;13.322;2023-06-24T09:47:46;6.05;;;5.45;;
62903;SDS011;49000;50.698;13.322;2023-06-24T09:50:12;7.32;;;5.15;;
62903;SDS011;49000;50.698;13.322;2023-06-24T09:52:37;7.53;;;5.60;;
62903;SDS011;49000;50.698;13.322;2023-06-24T09:55:03;6.22;;;4.90;;
62903;SDS011;49000;50.698;13.322;2023-06-24T09:57:30;6.85;;;5.22;;
62903;SDS011;49000;50.698;13.322;2023-06-24T09:59:58;7.50;;;5.28;;
62903;SDS011;49000;50.698;13.322;2023-06-24T10:02:24;6.80;;;4.93;;
62903;SDS011;49000;50.698;13.322;2023-06-24T10:04:50;5.40;;;4.85;;
62903;SDS011;49000;50.698;13.322;2023-06-24T10:07:17;7.18;;;5.90;;
62903;SDS011;49000;50.698;13.322;2023-06-24T10:09:43;6.07;;;5.40;;
62903;SDS011;49000;50.698;13.322;2023-06-24T10:12:09;8.95;;;5.32;;
62903;SDS011;49000;50.698;13.322;2023-06-24T10:14:35;5.85;;;4.93;;
62903;SDS011;49000;50.698;13.322;2023-06-24T10:17:01;5.85;;;4.63;;
62903;SDS011;49000;50.698;13.322;2023-06-24T10:19:28;5.35;;;4.60;;
62903;SDS011;49000;50.698;13.322;2023-06-24T10:21:54;6.88;;;4.85;;
62903;SDS011;49000;50.698;13.322;2023-06-24T10:24:33;8.20;;;5.22;;
62903;SDS011;49000;50.698;13.322;2023-06-24T10:27:01;5.70;;;4.68;;
62903;SDS011;49000;50.698;13.322;2023-06-24T10:29:50;5.28;;;4.78;;
62903;SDS011;49000;50.698;13.322;2023-06-24T10:32:17;5.63;;;4.95;;
62903;SDS011;49000;50.698;13.322;2023-06-24T10:34:44;6.28;;;4.80;;
62903;SDS011;49000;50.698;13.322;2023-06-24T10:37:18;5.28;;;4.88;;
62903;SDS011;49000;50.698;13.322;2023-06-24T10:42:32;6.40;;;4.60;;
62903;SDS011;49000;50.698;13.322;2023-06-24T10:50:06;6.10;;;5.50;;
62903;SDS011;49000;50.698;13.322;2023-06-24T10:52:33;6.32;;;4.82;;
62903;SDS011;49000;50.698;13.322;2023-06-24T10:55:03;5.40;;;4.90;;
62903;SDS011;49000;50.698;13.322;2023-06-24T10:57:29;7.43;;;5.78;;
62903;SDS011;49000;50.698;13.322;2023-06-24T10:59:55;5.47;;;4.70;;
62903;SDS011;49000;50.698;13.322;2023-06-24T11:02:22;5.70;;;5.20;;
62903;SDS011;49000;50.698;13.322;2023-06-24T11:04:50;5.50;;;4.93;;
62903;SDS011;49000;50.698;13.322;2023-06-24T11:07:17;5.28;;;4.78;;
62903;SDS011;49000;50.698;13.322;2023-06-24T11:09:57;6.35;;;4.95;;
62903;SDS011;49000;50.698;13.322;2023-06-24T11:12:41;6.03;;;5.43;;
62903;SDS011;49000;50.698;13.322;2023-06-24T11:15:10;6.18;;;5.03;;
62903;SDS011;49000;50.698;13.322;2023-06-24T11:17:37;6.40;;;5.70;;
62903;SDS011;49000;50.698;13.322;2023-06-24T11:20:06;5.18;;;4.68;;
62903;SDS011;49000;50.698;13.322;2023-06-24T11:22:36;5.78;;;5.18;;
62903;SDS011;49000;50.698;13.322;2023-06-24T11:25:02;6.20;;;4.75;;
62903;SDS011;49000;50.698;13.322;2023-06-24T11:27:29;4.90;;;4.50;;
62903;SDS011;49000;50.698;13.322;2023-06-24T11:29:55;5.57;;;4.68;;
62903;SDS011;49000;50.698;13.322;2023-06-24T11:32:36;6.00;;;5.10;;
62903;SDS011;49000;50.698;13.322;2023-06-24T11:35:03;7.30;;;5.50;;
62903;SDS011;49000;50.698;13.322;2023-06-24T11:37:30;5.43;;;4.93;;
62903;SDS011;49000;50.698;13.322;2023-06-24T11:40:04;5.65;;;4.80;;
62903;SDS011;49000;50.698;13.322;2023-06-24T11:42:38;5.65;;;4.93;;
62903;SDS011;49000;50.698;13.322;2023-06-24T11:45:06;6.38;;;5.50;;
62903;SDS011;49000;50.698;13.322;2023-06-24T11:47:36;5.72;;;5.00;;
62903;SDS011;49000;50.698;13.322;2023-06-24T11:50:03;7.85;;;5.20;;
62903;SDS011;49000;50.698;13.322;2023-06-24T11:55:25;8.35;;;4.88;;
62903;SDS011;49000;50.698;13.322;2023-06-24T11:57:52;5.28;;;4.70;;
62903;SDS011;49000;50.698;13.322;2023-06-24T12:00:20;5.68;;;5.18;;
62903;SDS011;49000;50.698;13.322;2023-06-24T12:02:48;5.43;;;4.72;;
62903;SDS011;49000;50.698;13.322;2023-06-24T12:05:27;5.95;;;4.68;;
62903;SDS011;49000;50.698;13.322;2023-06-24T12:07:55;8.20;;;5.00;;
62903;SDS011;49000;50.698;13.322;2023-06-24T12:10:22;5.70;;;4.40;;
62903;SDS011;49000;50.698;13.322;2023-06-24T12:12:47;5.25;;;4.75;;
62903;SDS011;49000;50.698;13.322;2023-06-24T12:15:13;4.68;;;4.28;;
62903;SDS011;49000;50.698;13.322;2023-06-24T12:17:38;5.88;;;4.78;;
62903;SDS011;49000;50.698;13.322;2023-06-24T12:20:04;6.38;;;5.03;;
62903;SDS011;49000;50.698;13.322;2023-06-24T12:22:30;7.18;;;4.72;;
62903;SDS011;49000;50.698;13.322;2023-06-24T12:24:56;5.03;;;4.53;;
62903;SDS011;49000;50.698;13.322;2023-06-24T12:27:21;5.78;;;4.95;;
62903;SDS011;49000;50.698;13.322;2023-06-24T12:29:47;10.82;;;5.03;;
62903;SDS011;49000;50.698;13.322;2023-06-24T12:32:12;4.78;;;4.32;;
62903;SDS011;49000;50.698;13.322;2023-06-24T12:34:38;5.45;;;4.93;;
62903;SDS011;49000;50.698;13.322;2023-06-24T12:37:03;6.85;;;5.15;;
62903;SDS011;49000;50.698;13.322;2023-06-24T12:39:29;6.22;;;5.00;;
62903;SDS011;49000;50.698;13.322;2023-06-24T12:41:54;5.22;;;4.68;;
62903;SDS011;49000;50.698;13.322;2023-06-24T12:44:20;5.57;;;5.07;;
62903;SDS011;49000;50.698;13.322;2023-06-24T12:46:45;9.30;;;5.13;;
62903;SDS011;49000;50.698;13.322;2023-06-24T12:49:11;6.60;;;5.05;;
62903;SDS011;49000;50.698;13.322;2023-06-24T12:51:36;5.25;;;4.65;;
62903;SDS011;49000;50.698;13.322;2023-06-24T12:54:02;6.25;;;5.63;;
62903;SDS011;49000;50.698;13.322;2023-06-24T12:56:27;6.93;;;5.18;;
62903;SDS011;49000;50.698;13.322;2023-06-24T12:58:52;5.88;;;5.38;;
62903;SDS011;49000;50.698;13.322;2023-06-24T13:01:18;6.18;;;5.25;;
62903;SDS011;49000;50.698;13.322;2023-06-24T13:03:43;7.80;;;5.15;;
62903;SDS011;49000;50.698;13.322;2023-06-24T13:06:09;5.78;;;5.18;;
62903;SDS011;49000;50.698;13.322;2023-06-24T13:08:34;6.35;;;5.45;;
62903;SDS011;49000;50.698;13.322;2023-06-24T13:11:00;7.03;;;5.55;;
62903;SDS011;49000;50.698;13.322;2023-06-24T13:13:25;6.05;;;5.18;;
62903;SDS011;49000;50.698;13.322;2023-06-24T13:15:51;5.95;;;5.35;;
62903;SDS011;49000;50.698;13.322;2023-06-24T13:18:16;6.28;;;4.93;;
62903;SDS011;49000;50.698;13.322;2023-06-24T13:20:44;5.50;;;4.93;;
62903;SDS011;49000;50.698;13.322;2023-06-24T13:23:10;8.95;;;4.97;;
62903;SDS011;49000;50.698;13.322;2023-06-24T13:25:36;5.63;;;4.55;;
62903;SDS011;49000;50.698;13.322;2023-06-24T13:28:01;5.97;;;4.82;;
62903;SDS011;49000;50.698;13.322;2023-06-24T13:30:27;4.68;;;4.28;;
62903;SDS011;49000;50.698;13.322;2023-06-24T13:32:53;5.90;;;4.75;;
62903;SDS011;49000;50.698;13.322;2023-06-24T13:35:18;5.22;;;4.53;;
62903;SDS011;49000;50.698;13.322;2023-06-24T13:37:44;4.80;;;4.40;;
62903;SDS011;49000;50.698;13.322;2023-06-24T13:40:09;5.10;;;4.60;;
62903;SDS011;49000;50.698;13.322;2023-06-24T13:42:35;6.82;;;4.93;;
62903;SDS011;49000;50.698;13.322;2023-06-24T13:45:01;5.05;;;4.60;;
62903;SDS011;49000;50.698;13.322;2023-06-24T13:47:27;4.85;;;4.43;;
62903;SDS011;49000;50.698;13.322;2023-06-24T13:49:52;5.22;;;4.35;;
62903;SDS011;49000;50.698;13.322;2023-06-24T13:52:18;5.45;;;4.30;;
62903;SDS011;49000;50.698;13.322;2023-06-24T13:54:43;5.05;;;4.38;;
62903;SDS011;49000;50.698;13.322;2023-06-24T13:57:09;5.28;;;4.20;;
62903;SDS011;49000;50.698;13.322;2023-06-24T13:59:34;5.40;;;4.13;;
62903;SDS011;49000;50.698;13.322;2023-06-24T14:01:59;5.43;;;4.22;;
62903;SDS011;49000;50.698;13.322;2023-06-24T14:04:25;7.10;;;4.47;;
62903;SDS011;49000;50.698;13.322;2023-06-24T14:06:50;4.72;;;4.30;;
62903;SDS011;49000;50.698;13.322;2023-06-24T14:09:18;4.85;;;4.35;;
62903;SDS011;49000;50.698;13.322;2023-06-24T14:11:44;5.32;;;4.10;;
62903;SDS011;49000;50.698;13.322;2023-06-24T14:14:09;5.85;;;4.88;;
62903;SDS011;49000;50.698;13.322;2023-06-24T14:16:35;4.90;;;4.50;;
62903;SDS011;49000;50.698;13.322;2023-06-24T14:19:00;7.00;;;4.63;;
62903;SDS011;49000;50.698;13.322;2023-06-24T14:21:25;4.93;;;4.53;;
62903;SDS011;49000;50.698;13.322;2023-06-24T14:23:51;5.00;;;4.38;;
62903;SDS011;49000;50.698;13.322;2023-06-24T14:26:16;5.28;;;4.70;;
62903;SDS011;49000;50.698;13.322;2023-06-24T14:28:42;4.38;;;3.97;;
62903;SDS011;49000;50.698;13.322;2023-06-24T14:31:09;4.90;;;4.10;;
62903;SDS011;49000;50.698;13.322;2023-06-24T14:33:34;4.30;;;3.97;;
62903;SDS011;49000;50.698;13.322;2023-06-24T14:36:00;5.43;;;4.30;;
62903;SDS011;49000;50.698;13.322;2023-06-24T14:38:25;4.88;;;4.40;;
62903;SDS011;49000;50.698;13.322;2023-06-24T14:40:51;5.07;;;4.57;;